This is the latest recevied weather packets stored in our database for station/object K0WXC-1. If no packets are shown the sender has not sent any weather packets the latest 10 day(s).
| Time | Temp. | Humidity | Pressure | Rain* | Wind** | Luminosity | Snow |
|---|---|---|---|---|---|---|---|
| 1778087488 | 13.33° C | 38% | 1005 hPa | 0 mm | 0.45 m/s, 66° | - | - |
| 1778087428 | 13.33° C | 35% | 1004.9 hPa | 0 mm | 0.45 m/s, 110° | - | - |
| 1778087368 | 13.33° C | 35% | 1004.9 hPa | 0 mm | 0.45 m/s, 110° | - | - |
| 1778087308 | 13.33° C | 35% | 1004.9 hPa | 0 mm | 0.45 m/s, 110° | - | - |
| 1778087248 | 13.33° C | 35% | 1004.9 hPa | 0 mm | 0.45 m/s, 110° | - | - |
| 1778087188 | 13.33° C | 35% | 1004.9 hPa | 0 mm | 0.45 m/s, 110° | - | - |
| 1778087128 | 12.78° C | 43% | 1005.2 hPa | 0 mm | 2.24 m/s, 304° | - | - |
| 1778087068 | 12.78° C | 43% | 1005.2 hPa | 0 mm | 2.24 m/s, 304° | - | - |
| 1778087008 | 12.78° C | 43% | 1005.2 hPa | 0 mm | 2.24 m/s, 304° | - | - |
| 1778086948 | 12.78° C | 43% | 1005.2 hPa | 0 mm | 2.24 m/s, 304° | - | - |
| 1778086888 | 12.78° C | 43% | 1005.2 hPa | 0 mm | 2.24 m/s, 304° | - | - |
| 1778086828 | 12.22° C | 37% | 1004.8 hPa | 0 mm | 1.34 m/s, 15° | - | - |
| 1778086768 | 12.22° C | 37% | 1004.8 hPa | 0 mm | 1.34 m/s, 15° | - | - |
| 1778086708 | 12.22° C | 37% | 1004.8 hPa | 0 mm | 1.34 m/s, 15° | - | - |
| 1778086648 | 12.22° C | 37% | 1004.8 hPa | 0 mm | 1.34 m/s, 15° | - | - |
| 1778086588 | 12.22° C | 37% | 1004.8 hPa | 0 mm | 1.34 m/s, 15° | - | - |
| 1778086528 | 12.22° C | 38% | 1004.9 hPa | 0 mm | 2.68 m/s, 292° | - | - |
| 1778086468 | 12.22° C | 38% | 1004.9 hPa | 0 mm | 2.68 m/s, 292° | - | - |
| 1778086409 | 12.22° C | 38% | 1004.9 hPa | 0 mm | 2.68 m/s, 292° | - | - |
| 1778086349 | 12.22° C | 38% | 1004.9 hPa | 0 mm | 2.68 m/s, 292° | - | - |
| 1778086288 | 12.22° C | 38% | 1004.9 hPa | 0 mm | 2.68 m/s, 292° | - | - |
| 1778086228 | 12.78° C | 36% | 1005.1 hPa | 0 mm | 0.45 m/s, 58° | - | - |
| 1778086168 | 12.78° C | 36% | 1005.1 hPa | 0 mm | 0.45 m/s, 58° | - | - |
| 1778086108 | 12.78° C | 36% | 1005.1 hPa | 0 mm | 0.45 m/s, 58° | - | - |
| 1778086048 | 12.78° C | 36% | 1005.1 hPa | 0 mm | 0.45 m/s, 58° | - | - |
* Rain latest hour (hover to see other rain measurements)
** Current wind speed in m/s (hover to see current wind gust speed)